createdAt,value
2022-12-15T00:00:48.823Z,96.40
2022-12-15T00:03:47.568Z,91.50
2022-12-15T00:06:34.561Z,92.60
2022-12-15T00:09:25.147Z,80.30
2022-12-15T00:12:15.030Z,81.50
2022-12-15T00:15:01.825Z,78.90
2022-12-15T00:17:49.142Z,83.90
2022-12-15T00:20:36.735Z,89.70
2022-12-15T00:23:31.783Z,81.10
2022-12-15T00:26:19.250Z,84.60
2022-12-15T00:29:06.247Z,97.40
2022-12-15T00:31:53.576Z,87.20
2022-12-15T00:34:40.668Z,89.10
2022-12-15T00:37:27.801Z,93.20
2022-12-15T00:39:59.197Z,85.10
2022-12-15T00:42:29.042Z,86.40
2022-12-15T00:44:57.544Z,94.30
2022-12-15T00:47:26.246Z,83.50
2022-12-15T00:50:13.115Z,85.50
2022-12-15T00:53:00.259Z,86.50
2022-12-15T00:55:47.653Z,88.50
2022-12-15T00:58:36.637Z,100.40
2022-12-15T01:01:30.240Z,92.10
2022-12-15T01:04:17.462Z,81.00
2022-12-15T01:07:04.850Z,83.30
2022-12-15T01:09:51.713Z,83.50
2022-12-15T01:12:39.090Z,82.60
2022-12-15T01:15:26.820Z,80.20
2022-12-15T01:18:13.994Z,71.10
2022-12-15T01:20:42.306Z,84.60
2022-12-15T01:23:10.821Z,69.50
2022-12-15T01:25:40.054Z,84.00
2022-12-15T01:28:08.384Z,55.30
2022-12-15T01:30:36.725Z,68.80
2022-12-15T01:33:05.026Z,82.00
2022-12-15T01:35:33.406Z,77.40
2022-12-15T01:38:01.802Z,87.70
2022-12-15T01:40:45.815Z,83.60
2022-12-15T01:46:03.273Z,83.80
2022-12-15T01:48:52.253Z,83.20
2022-12-15T01:51:25.884Z,88.30
2022-12-15T01:56:35.362Z,79.50
2022-12-15T01:59:11.920Z,91.20
2022-12-15T02:01:40.584Z,84.80
2022-12-15T02:04:09.351Z,82.20
2022-12-15T02:06:37.745Z,78.50
2022-12-15T02:09:06.580Z,74.20
2022-12-15T02:11:43.773Z,98.60
2022-12-15T02:14:15.953Z,97.80
2022-12-15T02:16:53.693Z,95.30
2022-12-15T02:19:21.975Z,91.10
2022-12-15T02:22:17.043Z,86.70
2022-12-15T02:25:10.796Z,87.60
2022-12-15T02:28:01.766Z,57.30
2022-12-15T02:31:08.073Z,92.00
2022-12-15T02:34:00.519Z,85.60
2022-12-15T02:36:54.590Z,91.40
2022-12-15T02:39:24.037Z,95.80
2022-12-15T02:41:53.278Z,96.80
2022-12-15T02:44:35.335Z,94.80
2022-12-15T02:47:28.565Z,93.40
2022-12-15T02:50:10.836Z,85.70
2022-12-15T02:52:55.563Z,80.60
2022-12-15T02:55:59.404Z,79.10
2022-12-15T02:58:38.069Z,103.50
2022-12-15T03:01:14.623Z,101.00
2022-12-15T03:03:44.387Z,102.40
2022-12-15T03:06:13.274Z,101.60
2022-12-15T03:08:41.640Z,89.40
2022-12-15T03:11:09.958Z,95.20
2022-12-15T03:13:38.360Z,91.00
2022-12-15T03:16:06.964Z,96.20
2022-12-15T03:18:35.456Z,100.00
2022-12-15T03:21:03.999Z,92.60
2022-12-15T03:23:33.027Z,88.40
2022-12-15T03:26:01.870Z,93.30
2022-12-15T03:28:30.187Z,92.90
2022-12-15T03:30:58.521Z,82.40
2022-12-15T03:33:26.927Z,87.80
2022-12-15T03:35:56.391Z,114.60
2022-12-15T03:38:24.662Z,88.60
2022-12-15T03:40:53.003Z,97.70
2022-12-15T03:43:21.263Z,89.80
2022-12-15T03:45:49.872Z,87.70
2022-12-15T03:48:18.297Z,72.30
2022-12-15T03:50:48.714Z,89.80
2022-12-15T03:53:17.615Z,92.70
2022-12-15T03:55:45.986Z,82.30
2022-12-15T03:58:14.338Z,87.40
2022-12-15T04:00:42.919Z,83.50
2022-12-15T04:03:12.035Z,88.50
2022-12-15T04:05:40.653Z,85.80
2022-12-15T04:08:08.980Z,82.80
2022-12-15T04:10:37.282Z,86.00
2022-12-15T04:13:08.300Z,81.20
2022-12-15T04:15:38.568Z,82.40
2022-12-15T04:18:12.692Z,80.00
2022-12-15T04:20:41.452Z,74.10
2022-12-15T04:23:09.881Z,81.70
2022-12-15T04:25:57.385Z,81.30
2022-12-15T04:28:44.200Z,81.90
2022-12-15T04:31:47.692Z,82.20
2022-12-15T04:34:39.056Z,86.00
2022-12-15T04:37:29.790Z,87.00
2022-12-15T04:40:18.893Z,80.90
2022-12-15T04:43:07.465Z,79.30
2022-12-15T04:45:54.653Z,83.80
2022-12-15T04:48:41.550Z,78.80
2022-12-15T04:51:28.499Z,81.10
2022-12-15T04:54:15.470Z,82.20
2022-12-15T04:57:02.330Z,74.90
2022-12-15T04:59:49.417Z,73.00
2022-12-15T05:02:36.970Z,79.80
2022-12-15T05:05:24.270Z,74.10
2022-12-15T05:08:11.387Z,76.50
2022-12-15T05:10:58.513Z,93.60
2022-12-15T05:13:45.502Z,79.80
2022-12-15T05:16:32.633Z,82.90
2022-12-15T05:19:20.136Z,76.20
2022-12-15T05:22:07.206Z,80.60
2022-12-15T05:24:54.308Z,73.10
2022-12-15T05:27:41.633Z,88.60
2022-12-15T05:30:29.190Z,86.10
2022-12-15T05:32:57.531Z,76.40
2022-12-15T05:35:25.981Z,79.80
2022-12-15T05:37:54.414Z,82.60
2022-12-15T05:40:22.759Z,95.40
2022-12-15T05:42:51.117Z,94.50
2022-12-15T05:45:19.447Z,85.30
2022-12-15T05:47:54.923Z,89.80
2022-12-15T05:50:24.096Z,99.90
2022-12-15T05:52:52.669Z,93.20
2022-12-15T05:55:21.023Z,105.20
2022-12-15T05:57:55.750Z,184.80
2022-12-15T06:00:24.309Z,113.90
2022-12-15T06:02:52.893Z,114.40
2022-12-15T06:05:21.165Z,117.80
2022-12-15T06:07:50.107Z,124.30
2022-12-15T06:10:18.548Z,117.00
2022-12-15T06:12:47.326Z,117.20
2022-12-15T06:15:15.879Z,132.00
2022-12-15T06:17:44.673Z,140.30
2022-12-15T06:20:18.230Z,131.70
2022-12-15T06:22:49.933Z,124.00
2022-12-15T06:25:18.737Z,118.30
2022-12-15T06:27:47.140Z,117.30
2022-12-15T06:30:16.447Z,120.00
2022-12-15T06:32:44.769Z,118.20
2022-12-15T06:35:13.139Z,120.50
2022-12-15T06:37:41.475Z,118.00
2022-12-15T06:40:10.497Z,123.40
2022-12-15T06:42:39.026Z,124.60
2022-12-15T06:45:08.617Z,118.10
2022-12-15T06:47:37.080Z,131.00
2022-12-15T06:50:05.804Z,118.30
2022-12-15T06:52:34.129Z,116.60
2022-12-15T06:55:03.711Z,114.20
2022-12-15T06:57:32.249Z,108.70
2022-12-15T07:00:29.731Z,104.80
2022-12-15T07:02:58.342Z,116.80
2022-12-15T07:05:27.834Z,113.20
2022-12-15T07:07:56.166Z,108.50
2022-12-15T07:10:24.560Z,109.60
2022-12-15T07:12:52.875Z,95.40
2022-12-15T07:15:21.268Z,110.20
2022-12-15T07:17:49.804Z,104.30
2022-12-15T07:20:18.304Z,105.70
2022-12-15T07:22:51.594Z,114.80
2022-12-15T07:25:20.996Z,109.80
2022-12-15T07:27:49.323Z,116.80
2022-12-15T07:30:18.400Z,117.40
2022-12-15T07:32:50.397Z,116.60
2022-12-15T07:35:18.963Z,121.70
2022-12-15T07:37:47.339Z,119.90
2022-12-15T07:40:15.676Z,123.00
2022-12-15T07:42:44.274Z,121.40
2022-12-15T07:45:12.606Z,119.70
2022-12-15T07:47:41.142Z,116.60
2022-12-15T07:50:09.656Z,112.90
2022-12-15T07:52:38.047Z,115.40
2022-12-15T07:55:07.230Z,121.70
2022-12-15T07:57:35.743Z,118.50
2022-12-15T08:00:26.087Z,119.00
2022-12-15T08:02:54.771Z,116.60
2022-12-15T08:05:24.041Z,121.50
2022-12-15T08:07:52.413Z,120.90
2022-12-15T08:10:20.792Z,128.20
2022-12-15T08:12:49.188Z,127.60
2022-12-15T08:15:17.612Z,128.00
2022-12-15T08:17:46.946Z,126.80
2022-12-15T08:20:15.730Z,119.80
2022-12-15T08:22:44.005Z,139.50
2022-12-15T08:25:12.467Z,124.10
2022-12-15T08:27:41.373Z,125.80
2022-12-15T08:30:10.565Z,125.60
2022-12-15T08:32:39.865Z,120.00
2022-12-15T08:35:25.303Z,123.90
2022-12-15T08:37:53.965Z,124.00
2022-12-15T08:40:22.392Z,130.90
2022-12-15T08:42:50.755Z,132.90
2022-12-15T08:45:19.160Z,140.10
2022-12-15T08:47:47.583Z,144.40
2022-12-15T08:50:16.147Z,126.90
2022-12-15T08:53:00.590Z,123.80
2022-12-15T08:55:29.412Z,119.20
2022-12-15T08:57:58.445Z,132.80
2022-12-15T09:00:26.896Z,139.90
2022-12-15T09:02:55.509Z,157.00
2022-12-15T09:05:23.947Z,143.10
2022-12-15T09:08:06.143Z,136.30
2022-12-15T09:10:35.292Z,134.20
2022-12-15T09:13:03.729Z,147.80
2022-12-15T09:16:07.069Z,149.10
2022-12-15T09:18:20.373Z,139.30
2022-12-15T09:20:48.776Z,133.40
2022-12-15T09:23:17.323Z,159.10
2022-12-15T09:25:46.887Z,140.80
2022-12-15T09:28:15.305Z,142.60
2022-12-15T09:30:43.612Z,143.80
2022-12-15T09:33:12.011Z,139.40
2022-12-15T09:35:40.525Z,151.20
2022-12-15T09:38:08.838Z,147.40
2022-12-15T09:40:37.214Z,152.20
2022-12-15T09:43:33.551Z,155.30
2022-12-15T09:46:16.279Z,136.90
2022-12-15T09:48:47.254Z,144.30
2022-12-15T09:51:19.045Z,135.90
2022-12-15T09:53:56.093Z,148.50
2022-12-15T09:56:39.225Z,158.10
2022-12-15T09:59:41.592Z,153.90
2022-12-15T10:02:44.114Z,146.10
2022-12-15T10:06:06.031Z,150.30
2022-12-15T10:08:24.114Z,142.80
2022-12-15T10:11:05.864Z,131.90
2022-12-15T10:14:13.541Z,137.50
2022-12-15T10:16:55.693Z,144.50
2022-12-15T10:19:32.018Z,151.70
2022-12-15T10:22:00.913Z,136.20
2022-12-15T10:25:07.932Z,147.80
2022-12-15T10:27:47.618Z,136.90
2022-12-15T10:30:17.852Z,143.60
2022-12-15T10:32:56.090Z,142.00
2022-12-15T10:35:29.831Z,146.50
2022-12-15T10:38:04.941Z,136.70
2022-12-15T10:43:27.606Z,156.90
2022-12-15T10:46:19.080Z,153.60
2022-12-15T10:48:59.620Z,154.70
2022-12-15T10:51:51.723Z,151.40
2022-12-15T10:54:21.166Z,150.40
2022-12-15T10:57:00.616Z,141.40
2022-12-15T10:59:32.068Z,128.70
2022-12-15T11:02:27.827Z,141.90
2022-12-15T11:04:59.209Z,128.90
2022-12-15T11:07:40.030Z,140.20
2022-12-15T11:10:53.049Z,131.00
2022-12-15T11:13:26.347Z,132.80
2022-12-15T11:16:14.088Z,137.30
2022-12-15T11:19:02.759Z,134.80
2022-12-15T11:21:37.203Z,126.60
2022-12-15T11:24:37.006Z,117.40
2022-12-15T11:27:19.247Z,126.60
2022-12-15T11:30:06.125Z,128.60
2022-12-15T11:32:37.566Z,131.20
2022-12-15T11:35:13.519Z,123.00
2022-12-15T11:37:51.824Z,126.60
2022-12-15T11:40:34.163Z,136.50
2022-12-15T11:43:09.522Z,125.50
2022-12-15T11:46:15.345Z,121.60
2022-12-15T11:49:02.564Z,124.50
2022-12-15T11:51:46.752Z,123.50
2022-12-15T11:54:39.210Z,119.40
2022-12-15T11:57:59.205Z,165.80
2022-12-15T12:00:32.437Z,115.50
2022-12-15T12:03:20.999Z,295.90
2022-12-15T12:05:57.141Z,163.90
2022-12-15T12:08:51.217Z,109.10
2022-12-15T12:11:29.385Z,93.80
2022-12-15T12:14:31.572Z,102.60
2022-12-15T12:17:27.446Z,92.80
2022-12-15T12:20:02.990Z,96.30
2022-12-15T12:23:05.742Z,120.90
2022-12-15T12:25:42.019Z,84.90
2022-12-15T12:28:23.828Z,90.00
2022-12-15T12:30:55.451Z,87.20
2022-12-15T12:33:45.133Z,72.80
2022-12-15T12:36:16.294Z,57.50
2022-12-15T12:38:51.837Z,55.70
2022-12-15T12:41:38.932Z,57.50
2022-12-15T12:44:31.263Z,49.40
2022-12-15T12:47:22.855Z,47.60
2022-12-15T12:50:14.791Z,55.20
2022-12-15T12:52:51.329Z,53.00
2022-12-15T12:55:27.886Z,55.10
2022-12-15T12:57:57.374Z,57.40
2022-12-15T13:00:33.015Z,60.70
2022-12-15T13:03:18.136Z,55.20
2022-12-15T13:05:50.628Z,60.90
2022-12-15T13:08:58.893Z,65.60
2022-12-15T13:11:58.126Z,71.60
2022-12-15T13:14:53.634Z,72.40
2022-12-15T13:17:39.208Z,73.90
2022-12-15T13:20:20.888Z,71.50
2022-12-15T13:22:50.503Z,79.50
2022-12-15T13:25:40.605Z,89.90
2022-12-15T13:28:20.741Z,91.40
2022-12-15T13:31:17.308Z,85.50
2022-12-15T13:33:52.662Z,94.50
2022-12-15T13:36:39.941Z,102.20
2022-12-15T13:39:17.246Z,92.00
2022-12-15T13:44:54.904Z,96.10
2022-12-15T13:47:24.945Z,96.00
2022-12-15T13:50:19.909Z,102.90
2022-12-15T13:56:38.275Z,123.70
2022-12-15T14:00:09.762Z,108.50
2022-12-15T14:02:38.087Z,96.00
2022-12-15T14:05:26.339Z,96.70
2022-12-15T14:07:55.231Z,95.00
2022-12-15T14:10:45.998Z,80.30
2022-12-15T14:13:30.166Z,77.30
2022-12-15T14:16:03.715Z,77.70
2022-12-15T14:18:39.245Z,69.60
2022-12-15T14:21:20.367Z,68.30
2022-12-15T14:24:36.922Z,69.60
2022-12-15T14:26:37.197Z,71.10
2022-12-15T14:29:06.824Z,63.30
2022-12-15T14:31:38.168Z,64.70
2022-12-15T14:34:18.487Z,75.30
2022-12-15T14:36:50.724Z,71.20
2022-12-15T14:39:50.344Z,70.80
2022-12-15T14:42:31.363Z,72.70
2022-12-15T14:44:59.973Z,74.60
2022-12-15T14:47:35.155Z,70.80
2022-12-15T14:50:10.102Z,68.20
2022-12-15T14:52:43.287Z,100.20
2022-12-15T14:55:30.627Z,67.00
2022-12-15T14:58:08.469Z,62.10
2022-12-15T15:00:50.467Z,78.00
2022-12-15T15:03:07.530Z,94.50
2022-12-15T15:06:01.796Z,62.90
2022-12-15T15:08:37.004Z,67.70
2022-12-15T15:11:36.128Z,70.90
2022-12-15T15:14:27.198Z,68.20
2022-12-15T15:17:14.986Z,66.30
2022-12-15T15:20:06.177Z,62.80
2022-12-15T15:22:43.575Z,69.20
2022-12-15T15:25:40.263Z,65.20
2022-12-15T15:28:17.878Z,62.50
2022-12-15T15:31:05.924Z,190.50
2022-12-15T15:33:34.456Z,85.90
2022-12-15T15:36:04.549Z,65.50
2022-12-15T15:38:36.113Z,80.00
2022-12-15T15:41:26.801Z,98.90
2022-12-15T15:43:56.348Z,114.30
2022-12-15T15:46:28.700Z,75.60
2022-12-15T15:49:03.764Z,63.90
2022-12-15T15:51:33.911Z,72.10
2022-12-15T15:54:08.965Z,75.20
2022-12-15T15:56:37.308Z,69.30
2022-12-15T15:59:14.823Z,92.00
2022-12-15T16:01:44.782Z,91.60
2022-12-15T16:04:13.403Z,76.90
2022-12-15T16:06:46.917Z,90.90
2022-12-15T16:09:17.280Z,68.40
2022-12-15T16:11:47.065Z,71.90
2022-12-15T16:14:18.257Z,63.80
2022-12-15T16:16:46.819Z,80.00
2022-12-15T16:19:15.525Z,90.10
2022-12-15T16:21:44.006Z,84.60
2022-12-15T16:24:19.025Z,73.30
2022-12-15T16:26:50.427Z,49.60
2022-12-15T16:29:22.379Z,51.60
2022-12-15T16:31:50.925Z,80.10
2022-12-15T16:34:22.119Z,72.10
2022-12-15T16:36:50.971Z,49.30
2022-12-15T16:39:29.335Z,52.70
2022-12-15T16:41:58.466Z,49.10
2022-12-15T16:44:29.101Z,62.40
2022-12-15T16:46:59.298Z,59.70
2022-12-15T16:49:35.170Z,56.60
2022-12-15T16:52:06.919Z,51.50
2022-12-15T16:54:35.520Z,75.20
2022-12-15T16:57:05.876Z,58.20
2022-12-15T16:59:48.873Z,51.90
2022-12-15T17:02:30.461Z,66.10
2022-12-15T17:04:59.309Z,60.50
2022-12-15T17:07:28.488Z,49.60
2022-12-15T17:09:57.536Z,61.70
2022-12-15T17:12:26.619Z,62.10
2022-12-15T17:14:55.098Z,55.60
2022-12-15T17:17:23.896Z,59.70
2022-12-15T17:20:27.407Z,54.90
2022-12-15T17:22:41.483Z,44.50
2022-12-15T17:25:27.149Z,54.60
2022-12-15T17:28:12.527Z,57.50
2022-12-15T17:30:42.102Z,62.20
2022-12-15T17:33:34.534Z,56.30
2022-12-15T17:36:27.397Z,72.20
2022-12-15T17:38:59.316Z,59.00
2022-12-15T17:41:58.221Z,52.70
2022-12-15T17:44:36.335Z,48.70
2022-12-15T17:47:09.855Z,51.40
2022-12-15T17:49:39.112Z,53.00
2022-12-15T17:52:28.475Z,76.20
2022-12-15T17:54:57.964Z,57.30
2022-12-15T17:57:27.071Z,66.30
2022-12-15T18:00:02.250Z,71.70
2022-12-15T18:02:33.619Z,83.00
2022-12-15T18:05:02.463Z,79.90
2022-12-15T18:07:31.434Z,80.70
2022-12-15T18:10:02.017Z,59.80
2022-12-15T18:12:30.475Z,70.50
2022-12-15T18:15:00.176Z,66.90
2022-12-15T18:17:29.775Z,76.00
2022-12-15T18:19:58.857Z,66.10
2022-12-15T18:22:29.478Z,65.90
2022-12-15T18:24:58.575Z,73.20
2022-12-15T18:27:29.643Z,74.10
2022-12-15T18:29:58.481Z,89.60
2022-12-15T18:32:30.175Z,90.40
2022-12-15T18:34:59.037Z,92.90
2022-12-15T18:37:28.558Z,128.60
2022-12-15T18:40:04.186Z,76.80
2022-12-15T18:42:35.554Z,73.10
2022-12-15T18:45:06.045Z,59.50
2022-12-15T18:47:34.901Z,55.40
2022-12-15T18:50:07.176Z,58.30
2022-12-15T18:52:37.125Z,54.20
2022-12-15T18:55:17.031Z,49.90
2022-12-15T18:57:46.259Z,474.80
2022-12-15T19:00:16.409Z,256.40
2022-12-15T19:02:46.766Z,211.20
2022-12-15T19:05:32.974Z,130.80
2022-12-15T19:08:14.420Z,56.70
2022-12-15T19:10:49.079Z,102.50
2022-12-15T19:13:20.150Z,64.10
2022-12-15T19:15:50.335Z,47.10
2022-12-15T19:18:41.309Z,49.60
2022-12-15T19:21:43.806Z,53.60
2022-12-15T19:24:19.060Z,56.80
2022-12-15T19:26:49.867Z,63.40
2022-12-15T19:29:22.782Z,67.00
2022-12-15T19:31:53.452Z,74.60
2022-12-15T19:34:22.674Z,99.90
2022-12-15T19:36:54.543Z,76.80
2022-12-15T19:39:25.564Z,74.80
2022-12-15T19:41:57.182Z,73.60
2022-12-15T19:44:26.516Z,77.90
2022-12-15T19:46:56.389Z,76.50
2022-12-15T19:49:25.921Z,89.60
2022-12-15T19:51:55.397Z,83.60
2022-12-15T19:54:29.412Z,100.30
2022-12-15T19:56:59.819Z,100.20
2022-12-15T20:00:39.673Z,83.20
2022-12-15T20:03:10.008Z,119.40
2022-12-15T20:05:39.621Z,131.90
2022-12-15T20:08:15.566Z,173.80
2022-12-15T20:10:46.206Z,198.30
2022-12-15T20:13:16.893Z,227.40
2022-12-15T20:15:46.293Z,141.50
2022-12-15T20:18:15.974Z,141.70
2022-12-15T20:20:48.197Z,124.90
2022-12-15T20:23:26.670Z,115.00
2022-12-15T20:25:56.768Z,134.10
2022-12-15T20:28:28.377Z,141.00
2022-12-15T20:30:58.501Z,117.10
2022-12-15T20:33:28.057Z,113.80
2022-12-15T20:35:56.744Z,102.20
2022-12-15T20:38:25.525Z,105.70
2022-12-15T20:40:56.138Z,75.70
2022-12-15T20:43:26.590Z,85.90
2022-12-15T20:46:12.119Z,79.20
2022-12-15T20:48:41.603Z,74.60
2022-12-15T20:51:34.022Z,65.90
2022-12-15T20:54:13.835Z,70.20
2022-12-15T20:56:43.910Z,71.80
2022-12-15T20:59:36.674Z,71.70
2022-12-15T21:02:23.510Z,89.00
2022-12-15T21:04:53.099Z,81.80
2022-12-15T21:07:22.155Z,86.90
2022-12-15T21:09:51.427Z,67.50
2022-12-15T21:12:22.964Z,89.60
2022-12-15T21:14:52.714Z,84.30
2022-12-15T21:17:23.092Z,91.20
2022-12-15T21:19:52.918Z,73.10
2022-12-15T21:22:25.942Z,70.10
2022-12-15T21:24:57.243Z,77.90
2022-12-15T21:27:25.741Z,67.50
2022-12-15T21:29:54.364Z,70.40
2022-12-15T21:32:23.318Z,71.10
2022-12-15T21:34:51.745Z,58.30
2022-12-15T21:37:28.874Z,59.30
2022-12-15T21:39:59.841Z,56.00
2022-12-15T21:42:28.438Z,65.30
2022-12-15T21:44:56.742Z,59.20
2022-12-15T21:47:52.072Z,51.80
2022-12-15T21:50:20.759Z,55.00
2022-12-15T21:52:49.259Z,59.50
2022-12-15T21:55:24.166Z,58.40
2022-12-15T21:57:53.192Z,56.70
2022-12-15T22:01:24.919Z,89.30
2022-12-15T22:03:56.768Z,84.10
2022-12-15T22:06:28.049Z,71.10
2022-12-15T22:09:00.779Z,55.40
2022-12-15T22:11:31.696Z,60.70
2022-12-15T22:14:03.051Z,58.60
2022-12-15T22:16:31.340Z,59.40
2022-12-15T22:18:59.792Z,77.60
2022-12-15T22:21:28.135Z,61.60
2022-12-15T22:23:56.497Z,67.40
2022-12-15T22:26:29.243Z,69.80
2022-12-15T22:29:01.699Z,84.10
2022-12-15T22:31:30.076Z,59.00
2022-12-15T22:33:58.497Z,70.20
2022-12-15T22:36:26.861Z,76.40
2022-12-15T22:38:55.297Z,67.30
2022-12-15T22:41:24.382Z,75.20
2022-12-15T22:43:56.027Z,81.90
2022-12-15T22:46:25.425Z,79.00
2022-12-15T22:48:54.671Z,77.70
2022-12-15T22:51:23.374Z,68.60
2022-12-15T22:53:51.852Z,61.90
2022-12-15T22:56:40.561Z,84.10
2022-12-15T22:59:36.575Z,72.00
2022-12-15T23:02:05.547Z,79.30
2022-12-15T23:04:34.297Z,72.10
2022-12-15T23:07:05.906Z,90.10
2022-12-15T23:09:34.241Z,79.60
2022-12-15T23:12:02.613Z,77.60
2022-12-15T23:14:59.767Z,84.00
2022-12-15T23:17:28.138Z,90.70
2022-12-15T23:19:56.757Z,88.90
2022-12-15T23:22:25.067Z,89.70
2022-12-15T23:24:53.444Z,99.10
2022-12-15T23:27:21.754Z,98.60
2022-12-15T23:29:50.088Z,89.00
2022-12-15T23:32:20.238Z,96.30
2022-12-15T23:34:48.631Z,94.50
2022-12-15T23:37:16.997Z,92.70
2022-12-15T23:39:45.485Z,112.30
2022-12-15T23:42:13.864Z,93.00
2022-12-15T23:44:42.241Z,93.40
2022-12-15T23:47:10.770Z,104.60
2022-12-15T23:49:39.270Z,103.00
2022-12-15T23:52:08.786Z,117.70
2022-12-15T23:54:37.178Z,101.60
2022-12-15T23:57:05.594Z,104.60
